ENA111 LFPN-LFPN
Flight info
| Callsign | ENA111 |
|---|---|
| Flight time | 0h 30m |
| Altitude | 3500 |
| Route | IN07L |
| Aircraft | PA24/L-SDGRY/S |
Departure
| Time | 2026-04-26 03:19 |
|---|---|
| Airport | Toussus-le-Noble Airport (LFPN) |
Arrival
| Time | 2026-04-26 03:49 |
|---|---|
| Airport | Toussus-le-Noble Airport (LFPN) |
| Time | Latitude | Longitude | Altitude | Speed | Heading |
|---|---|---|---|---|---|
| 2026-04-26 03:12 | 48.74970 | 2.11042 | 509 ft | 0 kts | 346° |
| 2026-04-26 03:16 | 48.74996 | 2.11040 | 509 ft | 7 kts | 317° |
| 2026-04-26 03:17 | 48.75075 | 2.11008 | 509 ft | 21 kts | 3° |
| 2026-04-26 03:17 | 48.75143 | 2.11041 | 507 ft | 3 kts | 282° |
| 2026-04-26 03:17 | 48.75144 | 2.11031 | 507 ft | 0 kts | 280° |
| 2026-04-26 03:18 | 48.75145 | 2.11030 | 507 ft | 1 kts | 281° |
| 2026-04-26 03:18 | 48.75176 | 2.10974 | 506 ft | 13 kts | 281° |
| 2026-04-26 03:18 | 48.75121 | 2.10711 | 516 ft | 52 kts | 251° |
| 2026-04-26 03:18 | 48.74969 | 2.10015 | 670 ft | 76 kts | 255° |
| 2026-04-26 03:19 | 48.74796 | 2.09152 | 838 ft | 96 kts | 256° |
| 2026-04-26 03:19 | 48.74432 | 2.08290 | 1075 ft | 104 kts | 214° |
| 2026-04-26 03:19 | 48.73710 | 2.08350 | 1265 ft | 116 kts | 150° |
| 2026-04-26 03:19 | 48.73164 | 2.09172 | 1531 ft | 115 kts | 97° |
| 2026-04-26 03:20 | 48.73280 | 2.10444 | 1565 ft | 123 kts | 75° |
| 2026-04-26 03:20 | 48.73396 | 2.11225 | 1631 ft | 119 kts | 75° |
| 2026-04-26 03:20 | 48.73627 | 2.12413 | 1712 ft | 116 kts | 68° |
| 2026-04-26 03:20 | 48.73888 | 2.13397 | 1642 ft | 109 kts | 63° |
| 2026-04-26 03:21 | 48.74393 | 2.14108 | 1563 ft | 98 kts | 7° |
| 2026-04-26 03:21 | 48.75078 | 2.13984 | 1437 ft | 105 kts | 340° |
| 2026-04-26 03:21 | 48.75627 | 2.13376 | 1236 ft | 90 kts | 303° |
| 2026-04-26 03:21 | 48.75692 | 2.12428 | 896 ft | 100 kts | 256° |
| 2026-04-26 03:22 | 48.75467 | 2.11421 | 540 ft | 97 kts | 253° |
| 2026-04-26 03:22 | 48.75269 | 2.10536 | 556 ft | 89 kts | 253° |
| 2026-04-26 03:22 | 48.75070 | 2.09593 | 819 ft | 97 kts | 253° |
| 2026-04-26 03:22 | 48.74932 | 2.08580 | 1123 ft | 101 kts | 280° |
| 2026-04-26 03:23 | 48.75466 | 2.07968 | 1290 ft | 107 kts | 3° |
| 2026-04-26 03:23 | 48.75948 | 2.08733 | 1366 ft | 116 kts | 68° |
| 2026-04-26 03:23 | 48.76191 | 2.09885 | 1313 ft | 118 kts | 70° |
| 2026-04-26 03:23 | 48.76412 | 2.11093 | 1214 ft | 117 kts | 76° |
| 2026-04-26 03:24 | 48.76054 | 2.11983 | 1097 ft | 102 kts | 158° |
| 2026-04-26 03:24 | 48.75392 | 2.11916 | 792 ft | 96 kts | 225° |
| 2026-04-26 03:24 | 48.75178 | 2.10978 | 512 ft | 89 kts | 254° |
| 2026-04-26 03:24 | 48.75007 | 2.10192 | 569 ft | 79 kts | 253° |
| 2026-04-26 03:25 | 48.74837 | 2.09382 | 841 ft | 84 kts | 256° |
| 2026-04-26 03:25 | 48.74504 | 2.08615 | 1112 ft | 96 kts | 211° |
| 2026-04-26 03:25 | 48.73829 | 2.08476 | 1389 ft | 104 kts | 167° |
| 2026-04-26 03:25 | 48.73303 | 2.09129 | 1693 ft | 104 kts | 102° |
| 2026-04-26 03:26 | 48.73365 | 2.10273 | 1597 ft | 114 kts | 71° |
| 2026-04-26 03:26 | 48.73704 | 2.11337 | 1426 ft | 108 kts | 46° |
| 2026-04-26 03:26 | 48.74307 | 2.11976 | 1154 ft | 103 kts | 28° |
| 2026-04-26 03:26 | 48.74967 | 2.11993 | 879 ft | 98 kts | 334° |
| 2026-04-26 03:27 | 48.75223 | 2.11186 | 541 ft | 96 kts | 256° |
| 2026-04-26 03:27 | 48.75027 | 2.10305 | 602 ft | 86 kts | 252° |
| 2026-04-26 03:27 | 48.74681 | 2.09580 | 885 ft | 94 kts | 209° |
| 2026-04-26 03:27 | 48.74154 | 2.09728 | 1039 ft | 79 kts | 128° |
| 2026-04-26 03:28 | 48.74039 | 2.10548 | 1143 ft | 85 kts | 83° |
| 2026-04-26 03:28 | 48.74135 | 2.11489 | 1220 ft | 95 kts | 76° |
| 2026-04-26 03:28 | 48.74271 | 2.12404 | 1224 ft | 85 kts | 72° |
| 2026-04-26 03:28 | 48.74464 | 2.13163 | 1286 ft | 75 kts | 14° |
| 2026-04-26 03:29 | 48.75094 | 2.12852 | 1060 ft | 113 kts | 324° |
| 2026-04-26 03:29 | 48.75510 | 2.11935 | 716 ft | 106 kts | 275° |
| 2026-04-26 03:29 | 48.75353 | 2.10915 | 512 ft | 89 kts | 254° |
| 2026-04-26 03:29 | 48.75185 | 2.10077 | 643 ft | 89 kts | 258° |
| 2026-04-26 03:30 | 48.74817 | 2.09248 | 735 ft | 96 kts | 237° |
| 2026-04-26 03:30 | 48.74307 | 2.09240 | 890 ft | 111 kts | 117° |
| 2026-04-26 03:30 | 48.74343 | 2.10421 | 1029 ft | 124 kts | 66° |
| 2026-04-26 03:30 | 48.74779 | 2.11647 | 1046 ft | 140 kts | 60° |
| 2026-04-26 03:31 | 48.75246 | 2.12943 | 1105 ft | 144 kts | 60° |
| 2026-04-26 03:31 | 48.75656 | 2.14247 | 1054 ft | 138 kts | 65° |
| 2026-04-26 03:31 | 48.76019 | 2.15581 | 1250 ft | 133 kts | 67° |
| 2026-04-26 03:31 | 48.76338 | 2.16937 | 1303 ft | 139 kts | 70° |
| 2026-04-26 03:32 | 48.76531 | 2.18405 | 1302 ft | 144 kts | 82° |
| 2026-04-26 03:32 | 48.76747 | 2.19802 | 1526 ft | 134 kts | 64° |
| 2026-04-26 03:32 | 48.77114 | 2.20501 | 1586 ft | 136 kts | 34° |
| 2026-04-26 03:32 | 48.78017 | 2.21072 | 1618 ft | 138 kts | 21° |
| 2026-04-26 03:33 | 48.78840 | 2.21789 | 1463 ft | 142 kts | 35° |
| 2026-04-26 03:33 | 48.79637 | 2.22613 | 1384 ft | 125 kts | 31° |
| 2026-04-26 03:33 | 48.80292 | 2.23242 | 1313 ft | 105 kts | 30° |
| 2026-04-26 03:33 | 48.80886 | 2.23795 | 1247 ft | 95 kts | 30° |
| 2026-04-26 03:34 | 48.81406 | 2.24300 | 1127 ft | 87 kts | 30° |
| 2026-04-26 03:34 | 48.81916 | 2.24787 | 1022 ft | 86 kts | 29° |
| 2026-04-26 03:34 | 48.82403 | 2.25301 | 927 ft | 83 kts | 36° |
| 2026-04-26 03:34 | 48.82858 | 2.25790 | 815 ft | 77 kts | 23° |
| 2026-04-26 03:35 | 48.83399 | 2.25908 | 770 ft | 86 kts | 353° |
| 2026-04-26 03:35 | 48.84021 | 2.25809 | 711 ft | 95 kts | 347° |
| 2026-04-26 03:35 | 48.84547 | 2.25331 | 772 ft | 80 kts | 292° |
| 2026-04-26 03:35 | 48.84190 | 2.24848 | 894 ft | 92 kts | 179° |
| 2026-04-26 03:36 | 48.83693 | 2.25438 | 1012 ft | 101 kts | 111° |
| 2026-04-26 03:36 | 48.83825 | 2.26473 | 957 ft | 103 kts | 46° |
| 2026-04-26 03:36 | 48.84342 | 2.27209 | 839 ft | 100 kts | 37° |
| 2026-04-26 03:36 | 48.84875 | 2.27890 | 694 ft | 103 kts | 38° |
| 2026-04-26 03:37 | 48.85410 | 2.28606 | 593 ft | 98 kts | 34° |
| 2026-04-26 03:37 | 48.85942 | 2.29170 | 525 ft | 95 kts | 34° |
| 2026-04-26 03:37 | 48.86300 | 2.30008 | 457 ft | 99 kts | 78° |
| 2026-04-26 03:37 | 48.86362 | 2.31046 | 450 ft | 98 kts | 82° |
| 2026-04-26 03:38 | 48.86603 | 2.31939 | 544 ft | 91 kts | 41° |
| 2026-04-26 03:38 | 48.87085 | 2.32585 | 660 ft | 90 kts | 40° |
| 2026-04-26 03:38 | 48.87289 | 2.32864 | 690 ft | 90 kts | 40° |
| 2026-04-26 03:38 | 48.87725 | 2.33572 | 781 ft | 91 kts | 43° |
| 2026-04-26 03:39 | 48.88210 | 2.34238 | 787 ft | 100 kts | 36° |
| 2026-04-26 03:39 | 48.88462 | 2.34465 | 844 ft | 100 kts | 20° |
| 2026-04-26 03:39 | 48.88781 | 2.34530 | 959 ft | 92 kts | 355° |
| 2026-04-26 03:39 | 48.89117 | 2.34386 | 1029 ft | 86 kts | 342° |
| 2026-04-26 03:40 | 48.89604 | 2.34171 | 983 ft | 79 kts | 327° |
| 2026-04-26 03:40 | 48.89778 | 2.33271 | 957 ft | 103 kts | 269° |
| 2026-04-26 03:40 | 48.89738 | 2.32135 | 1057 ft | 107 kts | 269° |
| 2026-04-26 03:40 | 48.89637 | 2.30980 | 1017 ft | 116 kts | 253° |
| 2026-04-26 03:41 | 48.89507 | 2.29900 | 962 ft | 95 kts | 263° |
| 2026-04-26 03:41 | 48.89448 | 2.28972 | 999 ft | 88 kts | 269° |
| 2026-04-26 03:41 | 48.89307 | 2.27902 | 1006 ft | 109 kts | 252° |
| 2026-04-26 03:41 | 48.89002 | 2.26862 | 842 ft | 109 kts | 245° |
| 2026-04-26 03:42 | 48.88673 | 2.25875 | 743 ft | 100 kts | 244° |
| 2026-04-26 03:42 | 48.88136 | 2.25347 | 881 ft | 105 kts | 191° |
| 2026-04-26 03:42 | 48.87431 | 2.24950 | 1145 ft | 109 kts | 210° |
| 2026-04-26 03:42 | 48.86789 | 2.24461 | 1160 ft | 100 kts | 207° |
| 2026-04-26 03:43 | 48.86178 | 2.23964 | 1238 ft | 98 kts | 212° |
| 2026-04-26 03:43 | 48.85621 | 2.23415 | 1302 ft | 92 kts | 216° |
| 2026-04-26 03:43 | 48.85093 | 2.22781 | 1351 ft | 99 kts | 224° |
| 2026-04-26 03:43 | 48.84575 | 2.22047 | 1389 ft | 106 kts | 224° |
| 2026-04-26 03:44 | 48.84081 | 2.21266 | 1582 ft | 98 kts | 233° |
| 2026-04-26 03:44 | 48.83700 | 2.20378 | 1593 ft | 105 kts | 237° |
| 2026-04-26 03:44 | 48.83409 | 2.19760 | 1569 ft | 111 kts | 237° |
| 2026-04-26 03:44 | 48.83255 | 2.19404 | 1591 ft | 109 kts | 240° |
| 2026-04-26 03:45 | 48.82907 | 2.18558 | 1640 ft | 121 kts | 238° |
| 2026-04-26 03:45 | 48.82389 | 2.17448 | 1763 ft | 129 kts | 237° |
| 2026-04-26 03:45 | 48.81881 | 2.16376 | 1702 ft | 129 kts | 236° |
| 2026-04-26 03:45 | 48.81397 | 2.15222 | 1734 ft | 129 kts | 247° |
| 2026-04-26 03:46 | 48.81104 | 2.13904 | 1281 ft | 134 kts | 254° |
| 2026-04-26 03:46 | 48.80831 | 2.12610 | 961 ft | 124 kts | 251° |
| 2026-04-26 03:46 | 48.80338 | 2.11731 | 980 ft | 110 kts | 195° |
| 2026-04-26 03:47 | 48.78941 | 2.12715 | 1383 ft | 118 kts | 138° |
| 2026-04-26 03:47 | 48.78355 | 2.13664 | 1450 ft | 130 kts | 123° |
| 2026-04-26 03:47 | 48.77869 | 2.14790 | 1471 ft | 120 kts | 142° |
| 2026-04-26 03:47 | 48.77335 | 2.15119 | 1426 ft | 127 kts | 163° |
| 2026-04-26 03:48 | 48.76478 | 2.14992 | 1358 ft | 123 kts | 206° |
| 2026-04-26 03:48 | 48.75879 | 2.14226 | 1152 ft | 105 kts | 244° |
| 2026-04-26 03:48 | 48.75748 | 2.13725 | 1090 ft | 93 kts | 254° |
| 2026-04-26 03:48 | 48.75621 | 2.13104 | 959 ft | 88 kts | 255° |
| 2026-04-26 03:49 | 48.75445 | 2.12248 | 738 ft | 78 kts | 254° |
| 2026-04-26 03:49 | 48.75282 | 2.11454 | 577 ft | 81 kts | 254° |
| 2026-04-26 03:49 | 48.75105 | 2.10668 | 517 ft | 71 kts | 255° |
| 2026-04-26 03:49 | 48.74988 | 2.10167 | 530 ft | 17 kts | 239° |
| 2026-04-26 03:50 | 48.75014 | 2.10245 | 529 ft | 33 kts | 73° |
| 2026-04-26 03:50 | 48.75069 | 2.10503 | 522 ft | 63 kts | 67° |
| 2026-04-26 03:50 | 48.75176 | 2.11248 | 748 ft | 77 kts | 81° |
| 2026-04-26 03:50 | 48.75173 | 2.12136 | 988 ft | 88 kts | 94° |
| 2026-04-26 03:51 | 48.74713 | 2.12761 | 1199 ft | 109 kts | 174° |
| 2026-04-26 03:51 | 48.74486 | 2.12728 | 1241 ft | 115 kts | 199° |